createdAt,value
2018-05-13T00:00:49.698Z,4.80
2018-05-13T00:01:49.628Z,4.90
2018-05-13T00:02:49.556Z,5.40
2018-05-13T00:03:49.485Z,5.60
2018-05-13T00:04:49.416Z,5.40
2018-05-13T00:05:49.344Z,4.60
2018-05-13T00:06:49.276Z,5.10
2018-05-13T00:07:49.202Z,6.70
2018-05-13T00:08:49.138Z,5.80
2018-05-13T00:09:49.061Z,5.60
2018-05-13T00:10:48.993Z,4.90
2018-05-13T00:11:48.920Z,5.00
2018-05-13T00:12:48.847Z,7.30
2018-05-13T00:13:48.776Z,6.30
2018-05-13T00:14:48.707Z,5.40
2018-05-13T00:15:48.635Z,5.00
2018-05-13T00:16:48.564Z,5.10
2018-05-13T00:17:48.493Z,5.30
2018-05-13T00:18:48.428Z,7.00
2018-05-13T00:19:48.354Z,5.30
2018-05-13T00:20:48.282Z,5.00
2018-05-13T00:21:48.211Z,5.20
2018-05-13T00:22:48.169Z,5.80
2018-05-13T00:23:48.069Z,5.80
2018-05-13T00:24:48.000Z,5.20
2018-05-13T00:25:47.927Z,5.30
2018-05-13T00:26:47.856Z,6.30
2018-05-13T00:27:47.786Z,5.90
2018-05-13T00:28:47.715Z,5.20
2018-05-13T00:29:47.644Z,6.90
2018-05-13T00:30:47.572Z,7.00
2018-05-13T00:31:47.502Z,6.20
2018-05-13T00:32:47.431Z,5.80
2018-05-13T00:33:47.361Z,5.30
2018-05-13T00:34:47.289Z,5.30
2018-05-13T00:35:47.219Z,7.00
2018-05-13T00:36:47.149Z,5.70
2018-05-13T00:37:47.077Z,5.90
2018-05-13T00:38:47.011Z,5.30
2018-05-13T00:39:46.936Z,6.10
2018-05-13T00:40:46.865Z,5.30
2018-05-13T00:41:46.794Z,5.70
2018-05-13T00:42:46.723Z,5.90
2018-05-13T00:43:46.654Z,6.10
2018-05-13T00:44:46.579Z,6.20
2018-05-13T00:45:46.509Z,5.80
2018-05-13T00:46:46.438Z,5.20
2018-05-13T00:47:46.368Z,6.20
2018-05-13T00:48:46.297Z,5.50
2018-05-13T00:49:46.225Z,6.50
2018-05-13T00:50:46.267Z,5.50
2018-05-13T00:51:46.083Z,6.80
2018-05-13T00:52:46.012Z,6.40
2018-05-13T00:53:45.941Z,5.80
2018-05-13T00:54:45.871Z,5.90
2018-05-13T00:55:45.798Z,6.80
2018-05-13T00:56:45.726Z,5.70
2018-05-13T00:57:45.655Z,5.30
2018-05-13T00:58:45.584Z,5.70
2018-05-13T00:59:45.513Z,6.80
2018-05-13T01:00:45.440Z,5.30
2018-05-13T01:01:45.368Z,6.00
2018-05-13T01:02:45.311Z,6.90
2018-05-13T01:03:45.225Z,5.80
2018-05-13T01:04:45.153Z,6.30
2018-05-13T01:05:45.083Z,6.00
2018-05-13T01:06:45.012Z,5.40
2018-05-13T01:07:44.940Z,5.70
2018-05-13T01:08:44.871Z,5.40
2018-05-13T01:09:44.794Z,5.50
2018-05-13T01:10:44.725Z,5.70
2018-05-13T01:11:44.652Z,6.20
2018-05-13T01:12:44.580Z,5.80
2018-05-13T01:13:44.509Z,6.20
2018-05-13T01:14:44.438Z,6.60
2018-05-13T01:15:44.364Z,6.10
2018-05-13T01:16:44.298Z,5.60
2018-05-13T01:17:44.222Z,5.30
2018-05-13T01:18:44.150Z,5.80
2018-05-13T01:19:44.077Z,7.00
2018-05-13T01:20:44.004Z,5.30
2018-05-13T01:21:43.931Z,6.10
2018-05-13T01:22:43.860Z,6.60
2018-05-13T01:23:43.789Z,6.00
2018-05-13T01:24:43.723Z,5.70
2018-05-13T01:25:43.653Z,6.50
2018-05-13T01:26:43.573Z,5.80
2018-05-13T01:27:43.500Z,6.40
2018-05-13T01:28:43.428Z,6.60
2018-05-13T01:29:43.356Z,6.80
2018-05-13T01:30:43.285Z,6.10
2018-05-13T01:31:43.213Z,7.00
2018-05-13T01:32:43.139Z,6.60
2018-05-13T01:33:43.068Z,5.80
2018-05-13T01:34:42.996Z,6.30
2018-05-13T01:35:42.924Z,5.80
2018-05-13T01:36:42.851Z,6.90
2018-05-13T01:37:42.781Z,8.70
2018-05-13T01:38:42.707Z,6.10
2018-05-13T01:39:42.635Z,6.00
2018-05-13T01:40:42.562Z,7.60
2018-05-13T01:41:42.492Z,6.10
2018-05-13T01:42:42.420Z,7.00
2018-05-13T01:43:42.347Z,5.90
2018-05-13T01:44:42.273Z,6.40
2018-05-13T01:45:42.200Z,6.30
2018-05-13T01:46:42.128Z,5.80
2018-05-13T01:47:42.056Z,7.00
2018-05-13T01:48:41.983Z,7.60
2018-05-13T01:49:41.919Z,6.80
2018-05-13T01:50:41.840Z,6.40
2018-05-13T01:51:41.768Z,6.40
2018-05-13T01:52:41.693Z,6.00
2018-05-13T01:53:41.620Z,7.40
2018-05-13T01:54:41.550Z,5.90
2018-05-13T01:55:41.477Z,6.30
2018-05-13T01:56:41.405Z,7.40
2018-05-13T01:57:41.332Z,8.10
2018-05-13T01:58:41.260Z,6.90
2018-05-13T01:59:41.187Z,6.50
2018-05-13T02:00:41.114Z,6.50
2018-05-13T02:01:41.042Z,7.00
2018-05-13T02:02:40.968Z,6.60
2018-05-13T02:03:40.897Z,7.60
2018-05-13T02:04:40.823Z,8.40
2018-05-13T02:05:40.760Z,6.30
2018-05-13T02:06:40.678Z,8.10
2018-05-13T02:07:40.605Z,7.90
2018-05-13T02:08:40.531Z,6.40
2018-05-13T02:09:40.462Z,7.00
2018-05-13T02:10:40.387Z,7.80
2018-05-13T02:11:40.315Z,8.50
2018-05-13T02:12:40.241Z,7.10
2018-05-13T02:13:40.169Z,7.30
2018-05-13T02:14:40.096Z,7.40
2018-05-13T02:15:40.024Z,6.70
2018-05-13T02:16:39.950Z,8.00
2018-05-13T02:17:39.878Z,7.90
2018-05-13T02:18:39.809Z,6.60
2018-05-13T02:19:39.733Z,7.30
2018-05-13T02:20:39.659Z,7.10
2018-05-13T02:21:39.587Z,7.10
2018-05-13T02:22:39.513Z,7.00
2018-05-13T02:23:39.442Z,6.70
2018-05-13T02:24:39.369Z,8.40
2018-05-13T02:25:39.295Z,7.50
2018-05-13T02:26:39.224Z,6.90
2018-05-13T02:27:39.150Z,6.30
2018-05-13T02:28:39.077Z,7.50
2018-05-13T02:29:39.003Z,7.00
2018-05-13T02:30:38.933Z,6.60
2018-05-13T02:31:38.858Z,7.90
2018-05-13T02:32:38.783Z,7.40
2018-05-13T02:33:38.712Z,7.00
2018-05-13T02:34:38.639Z,7.40
2018-05-13T02:35:38.567Z,8.40
2018-05-13T02:36:38.493Z,7.20
2018-05-13T02:37:38.420Z,7.30
2018-05-13T02:38:38.347Z,8.40
2018-05-13T02:39:38.277Z,7.60
2018-05-13T02:40:38.201Z,7.10
2018-05-13T02:41:38.128Z,7.30
2018-05-13T02:42:38.056Z,6.90
2018-05-13T02:43:37.985Z,10.60
2018-05-13T02:44:37.909Z,7.90
2018-05-13T02:45:37.844Z,6.40
2018-05-13T02:46:37.764Z,7.50
2018-05-13T02:47:37.692Z,6.40
2018-05-13T02:48:37.617Z,6.30
2018-05-13T02:49:37.544Z,6.80
2018-05-13T02:50:37.486Z,8.30
2018-05-13T02:51:37.400Z,8.00
2018-05-13T02:52:37.324Z,7.60
2018-05-13T02:53:37.251Z,7.10
2018-05-13T02:54:37.180Z,6.70
2018-05-13T02:55:37.106Z,7.40
2018-05-13T02:56:37.032Z,7.90
2018-05-13T02:57:36.961Z,7.60
2018-05-13T02:58:36.892Z,7.70
2018-05-13T02:59:36.816Z,8.20
2018-05-13T03:00:36.746Z,7.70
2018-05-13T03:01:36.670Z,7.00
2018-05-13T03:02:36.596Z,6.90
2018-05-13T03:03:36.527Z,7.60
2018-05-13T03:04:36.453Z,6.40
2018-05-13T03:05:36.379Z,6.70
2018-05-13T03:06:36.312Z,7.20
2018-05-13T03:07:36.234Z,7.70
2018-05-13T03:08:36.160Z,8.20
2018-05-13T03:09:36.086Z,7.00
2018-05-13T03:10:36.019Z,9.50
2018-05-13T03:11:35.943Z,6.90
2018-05-13T03:12:35.874Z,6.80
2018-05-13T03:13:35.797Z,6.70
2018-05-13T03:14:35.726Z,6.80
2018-05-13T03:15:35.652Z,7.10
2018-05-13T03:16:35.579Z,6.70
2018-05-13T03:17:35.507Z,6.30
2018-05-13T03:18:35.435Z,6.60
2018-05-13T03:19:35.362Z,7.30
2018-05-13T03:20:35.289Z,7.10
2018-05-13T03:21:35.217Z,6.50
2018-05-13T03:22:35.146Z,7.50
2018-05-13T03:23:35.074Z,6.70
2018-05-13T03:24:35.000Z,7.90
2018-05-13T03:25:34.926Z,6.80
2018-05-13T03:26:34.856Z,6.70
2018-05-13T03:27:34.784Z,7.80
2018-05-13T03:28:34.710Z,8.70
2018-05-13T03:29:34.639Z,8.10
2018-05-13T03:30:34.567Z,6.90
2018-05-13T03:31:34.495Z,6.90
2018-05-13T03:32:34.423Z,7.40
2018-05-13T03:33:34.349Z,6.50
2018-05-13T03:34:34.281Z,7.70
2018-05-13T03:35:34.207Z,6.60
2018-05-13T03:36:34.133Z,7.50
2018-05-13T03:37:34.060Z,7.50
2018-05-13T03:38:33.994Z,6.10
2018-05-13T03:39:33.918Z,7.30
2018-05-13T03:40:33.845Z,7.70
2018-05-13T03:41:33.772Z,6.60
2018-05-13T03:42:33.700Z,7.10
2018-05-13T03:43:33.627Z,6.30
2018-05-13T03:44:33.554Z,7.00
2018-05-13T03:45:33.484Z,7.40
2018-05-13T03:46:33.421Z,6.80
2018-05-13T03:47:33.339Z,6.60
2018-05-13T03:48:33.266Z,6.30
2018-05-13T03:49:33.193Z,6.40
2018-05-13T03:50:33.121Z,6.20
2018-05-13T03:51:33.049Z,6.60
2018-05-13T03:52:32.976Z,8.40
2018-05-13T03:53:32.908Z,6.50
2018-05-13T03:54:32.831Z,7.40
2018-05-13T03:55:32.763Z,7.00
2018-05-13T03:56:32.790Z,7.10
2018-05-13T03:57:32.616Z,7.20
2018-05-13T03:58:32.541Z,7.20
2018-05-13T03:59:32.470Z,7.70
2018-05-13T04:00:32.398Z,7.80
2018-05-13T04:01:32.332Z,7.90
2018-05-13T04:02:32.251Z,7.00
2018-05-13T04:03:32.181Z,6.70
2018-05-13T04:04:32.106Z,6.10
2018-05-13T04:05:32.033Z,6.50
2018-05-13T04:06:31.961Z,6.50
2018-05-13T04:07:31.892Z,7.20
2018-05-13T04:08:31.905Z,7.60
2018-05-13T04:09:31.742Z,6.80
2018-05-13T04:10:31.672Z,7.20
2018-05-13T04:11:31.597Z,7.00
2018-05-13T04:12:31.525Z,6.30
2018-05-13T04:13:31.452Z,6.90
2018-05-13T04:14:31.380Z,6.40
2018-05-13T04:15:31.309Z,6.20
2018-05-13T04:16:31.234Z,6.00
2018-05-13T04:17:31.162Z,7.00
2018-05-13T04:18:31.090Z,6.20
2018-05-13T04:19:31.018Z,6.60
2018-05-13T04:20:30.948Z,7.70
2018-05-13T04:21:30.872Z,6.80
2018-05-13T04:22:30.801Z,7.00
2018-05-13T04:23:30.727Z,6.40
2018-05-13T04:24:30.656Z,6.30
2018-05-13T04:25:30.581Z,5.70
2018-05-13T04:26:30.512Z,6.50
2018-05-13T04:27:30.589Z,7.60
2018-05-13T04:28:30.365Z,6.30
2018-05-13T04:29:30.292Z,6.10
2018-05-13T04:30:30.221Z,6.30
2018-05-13T04:31:30.150Z,6.80
2018-05-13T04:32:30.074Z,6.10
2018-05-13T04:33:30.003Z,7.30
2018-05-13T04:34:29.931Z,6.30
2018-05-13T04:35:29.858Z,6.30
2018-05-13T04:36:29.784Z,6.20
2018-05-13T04:37:29.712Z,6.20
2018-05-13T04:38:29.640Z,6.10
2018-05-13T04:39:29.569Z,7.90
2018-05-13T04:40:29.495Z,6.40
2018-05-13T04:41:29.423Z,6.20
2018-05-13T04:42:29.351Z,5.50
2018-05-13T04:43:29.280Z,6.40
2018-05-13T04:44:29.205Z,6.60
2018-05-13T04:45:29.134Z,7.20
2018-05-13T04:46:29.063Z,6.60
2018-05-13T04:47:28.991Z,6.40
2018-05-13T04:48:28.918Z,5.80
2018-05-13T04:49:28.847Z,6.30
2018-05-13T04:50:28.774Z,6.10
2018-05-13T04:51:28.703Z,6.30
2018-05-13T04:52:28.628Z,6.00
2018-05-13T04:53:28.556Z,5.60
2018-05-13T04:54:28.483Z,5.80
2018-05-13T04:55:28.412Z,6.90
2018-05-13T04:56:28.340Z,6.20
2018-05-13T04:57:28.267Z,6.30
2018-05-13T04:58:28.194Z,6.00
2018-05-13T04:59:28.126Z,6.20
2018-05-13T05:00:28.051Z,7.10
2018-05-13T05:01:27.981Z,5.90
2018-05-13T05:02:27.908Z,5.80
2018-05-13T05:03:27.838Z,6.30
2018-05-13T05:04:27.762Z,6.20
2018-05-13T05:05:27.692Z,6.20
2018-05-13T05:06:27.620Z,5.70
2018-05-13T05:07:27.549Z,6.10
2018-05-13T05:08:27.477Z,6.00
2018-05-13T05:09:27.405Z,5.70
2018-05-13T05:10:27.333Z,5.80
2018-05-13T05:11:27.262Z,5.90
2018-05-13T05:12:27.192Z,6.60
2018-05-13T05:13:27.118Z,6.20
2018-05-13T05:14:27.045Z,6.80
2018-05-13T05:15:26.975Z,7.30
2018-05-13T05:16:26.904Z,6.10
2018-05-13T05:17:26.832Z,6.40
2018-05-13T05:18:26.760Z,5.80
2018-05-13T05:19:26.688Z,5.50
2018-05-13T05:20:26.615Z,5.80
2018-05-13T05:21:26.552Z,6.50
2018-05-13T05:22:26.474Z,5.60
2018-05-13T05:23:26.405Z,6.70
2018-05-13T05:24:26.329Z,5.30
2018-05-13T05:25:26.259Z,5.40
2018-05-13T05:26:26.187Z,6.20
2018-05-13T05:27:26.117Z,5.80
2018-05-13T05:28:26.044Z,5.70
2018-05-13T05:29:25.977Z,6.40
2018-05-13T05:30:25.901Z,6.70
2018-05-13T05:31:25.832Z,5.90
2018-05-13T05:32:25.760Z,5.80
2018-05-13T05:33:25.688Z,7.10
2018-05-13T05:34:25.651Z,5.30
2018-05-13T05:35:25.545Z,6.10
2018-05-13T05:36:25.474Z,5.30
2018-05-13T05:37:25.404Z,5.80
2018-05-13T05:38:25.334Z,6.10
2018-05-13T05:39:25.262Z,6.10
2018-05-13T05:40:25.192Z,8.60
2018-05-13T05:41:25.119Z,6.50
2018-05-13T05:42:25.049Z,5.60
2018-05-13T05:43:24.978Z,5.80
2018-05-13T05:44:24.907Z,5.90
2018-05-13T05:45:24.837Z,6.70
2018-05-13T05:46:24.766Z,6.00
2018-05-13T05:47:24.700Z,6.40
2018-05-13T05:48:24.660Z,6.90
2018-05-13T05:49:24.553Z,7.20
2018-05-13T05:50:24.483Z,6.30
2018-05-13T05:51:24.417Z,8.00
2018-05-13T05:52:24.339Z,6.40
2018-05-13T05:53:24.285Z,7.20
2018-05-13T05:54:24.197Z,9.20
2018-05-13T05:55:24.129Z,7.50
2018-05-13T05:56:24.058Z,7.10
2018-05-13T05:57:23.986Z,8.20
2018-05-13T05:58:23.922Z,6.70
2018-05-13T05:59:23.846Z,6.80
2018-05-13T06:00:23.775Z,7.30
2018-05-13T06:01:23.704Z,7.20
2018-05-13T06:02:23.633Z,6.70
2018-05-13T06:03:23.563Z,6.90
2018-05-13T06:04:23.492Z,7.00
2018-05-13T06:05:23.422Z,7.30
2018-05-13T06:06:23.352Z,6.70
2018-05-13T06:07:23.281Z,7.90
2018-05-13T06:08:23.210Z,7.40
2018-05-13T06:09:23.143Z,6.90
2018-05-13T06:10:23.069Z,6.70
2018-05-13T06:11:23.004Z,9.30
2018-05-13T06:12:22.929Z,6.10
2018-05-13T06:13:22.858Z,7.00
2018-05-13T06:14:22.787Z,7.20
2018-05-13T06:15:22.717Z,6.60
2018-05-13T06:16:22.646Z,6.90
2018-05-13T06:17:22.576Z,6.70
2018-05-13T06:18:22.504Z,7.10
2018-05-13T06:19:22.437Z,7.30
2018-05-13T06:20:22.368Z,7.10
2018-05-13T06:21:22.294Z,6.80
2018-05-13T06:22:22.222Z,8.10
2018-05-13T06:23:22.153Z,7.00
2018-05-13T06:24:22.082Z,6.80
2018-05-13T06:25:22.014Z,7.00
2018-05-13T06:26:21.940Z,9.90
2018-05-13T06:27:21.874Z,7.90
2018-05-13T06:28:21.798Z,7.20
2018-05-13T06:29:21.733Z,7.00
2018-05-13T06:30:21.659Z,7.00
2018-05-13T06:31:21.589Z,7.70
2018-05-13T06:32:21.517Z,7.50
2018-05-13T06:33:21.447Z,8.10
2018-05-13T06:34:21.376Z,7.10
2018-05-13T06:35:21.306Z,8.50
2018-05-13T06:36:21.234Z,7.10
2018-05-13T06:37:21.166Z,7.10
2018-05-13T06:38:21.095Z,8.00
2018-05-13T06:39:21.025Z,7.60
2018-05-13T06:40:20.955Z,8.20
2018-05-13T06:41:20.882Z,7.30
2018-05-13T06:42:20.811Z,6.80
2018-05-13T06:43:20.741Z,7.40
2018-05-13T06:44:20.669Z,7.40
2018-05-13T06:45:20.720Z,8.70
2018-05-13T06:46:20.531Z,7.30
2018-05-13T06:47:20.459Z,8.70
2018-05-13T06:48:20.389Z,8.40
2018-05-13T06:49:20.317Z,7.10
2018-05-13T06:50:20.245Z,7.70
2018-05-13T06:51:20.396Z,9.30
2018-05-13T06:52:20.105Z,7.00
2018-05-13T06:53:20.037Z,7.70
2018-05-13T06:54:19.964Z,7.60
2018-05-13T06:55:19.894Z,7.60
2018-05-13T06:56:19.823Z,7.80
2018-05-13T06:57:19.830Z,7.40
2018-05-13T06:58:19.683Z,9.00
2018-05-13T06:59:19.612Z,6.60
2018-05-13T07:00:19.541Z,6.40
2018-05-13T07:01:19.470Z,7.20
2018-05-13T07:02:19.403Z,7.20
2018-05-13T07:03:19.330Z,6.70
2018-05-13T07:04:19.261Z,8.80
2018-05-13T07:05:19.190Z,7.60
2018-05-13T07:06:19.120Z,7.70
2018-05-13T07:07:19.047Z,7.00
2018-05-13T07:08:18.978Z,9.00
2018-05-13T07:09:18.907Z,7.20
2018-05-13T07:10:18.842Z,6.10
2018-05-13T07:11:18.768Z,6.60
2018-05-13T07:12:18.695Z,7.10
2018-05-13T07:13:18.626Z,7.20
2018-05-13T07:14:18.556Z,6.70
2018-05-13T07:15:18.493Z,6.70
2018-05-13T07:16:18.415Z,5.80
2018-05-13T07:17:18.345Z,6.50
2018-05-13T07:18:18.276Z,5.80
2018-05-13T07:19:18.204Z,5.70
2018-05-13T07:20:18.135Z,5.90
2018-05-13T07:21:18.065Z,5.30
2018-05-13T07:22:17.996Z,5.60
2018-05-13T07:23:17.927Z,6.30
2018-05-13T07:24:17.856Z,5.30
2018-05-13T07:25:17.789Z,5.00
2018-05-13T07:26:17.717Z,4.40
2018-05-13T07:27:17.649Z,4.80
2018-05-13T07:28:17.577Z,4.00
2018-05-13T07:29:17.595Z,4.50
2018-05-13T07:30:17.439Z,3.70
2018-05-13T07:31:17.369Z,3.90
2018-05-13T07:32:17.300Z,3.80
2018-05-13T07:33:17.230Z,3.30
2018-05-13T07:34:17.162Z,3.80
2018-05-13T07:35:17.092Z,3.50
2018-05-13T07:36:17.025Z,3.20
2018-05-13T07:37:16.953Z,3.20
2018-05-13T07:38:16.886Z,2.70
2018-05-13T07:39:16.816Z,2.90
2018-05-13T07:40:16.746Z,2.80
2018-05-13T07:41:16.677Z,2.90
2018-05-13T07:42:16.606Z,3.40
2018-05-13T07:43:16.547Z,2.90
2018-05-13T07:44:16.468Z,3.10
2018-05-13T07:45:16.399Z,3.10
2018-05-13T07:46:16.328Z,3.50
2018-05-13T07:47:16.260Z,3.20
2018-05-13T07:48:16.192Z,2.90
2018-05-13T07:49:16.123Z,3.30
2018-05-13T07:50:16.055Z,3.10
2018-05-13T07:51:15.985Z,3.30
2018-05-13T07:52:15.916Z,4.30
2018-05-13T07:53:15.847Z,3.80
2018-05-13T07:54:15.779Z,4.10
2018-05-13T07:55:15.709Z,4.60
2018-05-13T07:56:15.640Z,4.20
2018-05-13T07:57:15.571Z,5.70
2018-05-13T07:58:15.507Z,3.70
2018-05-13T07:59:15.434Z,4.20
2018-05-13T08:00:15.365Z,5.40
2018-05-13T08:01:15.296Z,4.60
2018-05-13T08:02:15.228Z,4.30
2018-05-13T08:03:15.159Z,4.90
2018-05-13T08:04:15.090Z,5.10
2018-05-13T08:05:15.020Z,3.90
2018-05-13T08:06:14.994Z,3.80
2018-05-13T08:07:14.883Z,4.40
2018-05-13T08:08:14.813Z,5.10
2018-05-13T08:09:14.746Z,4.10
2018-05-13T08:10:14.676Z,4.30
2018-05-13T08:11:14.608Z,5.00
2018-05-13T08:12:14.537Z,4.80
2018-05-13T08:13:14.468Z,4.20
2018-05-13T08:14:14.400Z,4.00
2018-05-13T08:15:14.331Z,7.40
2018-05-13T08:16:14.262Z,4.20
2018-05-13T08:17:14.192Z,5.30
2018-05-13T08:18:14.126Z,4.10
2018-05-13T08:19:14.058Z,5.80
2018-05-13T08:20:13.998Z,5.20
2018-05-13T08:21:13.918Z,4.20
2018-05-13T08:22:13.852Z,4.30
2018-05-13T08:23:13.780Z,4.20
2018-05-13T08:24:13.712Z,4.30
2018-05-13T08:25:13.642Z,5.30
2018-05-13T08:26:13.573Z,4.60
2018-05-13T08:27:13.506Z,6.00
2018-05-13T08:28:13.435Z,4.90
2018-05-13T08:29:13.367Z,4.00
2018-05-13T08:30:13.299Z,3.90
2018-05-13T08:31:13.229Z,4.30
2018-05-13T08:32:13.160Z,5.00
2018-05-13T08:33:13.092Z,4.70
2018-05-13T08:34:13.024Z,4.60
2018-05-13T08:35:12.955Z,4.40
2018-05-13T08:36:12.886Z,4.60
2018-05-13T08:37:12.819Z,4.60
2018-05-13T08:38:12.750Z,4.30
2018-05-13T08:39:12.682Z,4.50
2018-05-13T08:40:12.613Z,4.40
2018-05-13T08:41:12.543Z,4.70
2018-05-13T08:42:12.476Z,4.60
2018-05-13T08:43:12.408Z,4.40
2018-05-13T08:44:12.339Z,4.60
2018-05-13T08:45:12.270Z,4.70
2018-05-13T08:46:12.202Z,5.20
2018-05-13T08:47:12.137Z,5.00
2018-05-13T08:48:12.065Z,5.10
2018-05-13T08:49:11.996Z,4.70
2018-05-13T08:50:11.928Z,5.70
2018-05-13T08:51:11.860Z,6.40
2018-05-13T08:52:11.790Z,5.40
2018-05-13T08:53:11.723Z,5.50
2018-05-13T08:54:11.656Z,6.30
2018-05-13T08:55:11.587Z,5.70
2018-05-13T08:56:11.517Z,5.70
2018-05-13T08:57:11.454Z,5.50
2018-05-13T08:58:11.382Z,6.20
2018-05-13T08:59:11.312Z,6.60
2018-05-13T09:00:11.242Z,6.50
2018-05-13T09:01:11.175Z,4.90
2018-05-13T09:02:11.107Z,6.00
2018-05-13T09:03:11.037Z,6.00
2018-05-13T09:04:10.969Z,6.30
2018-05-13T09:05:10.900Z,6.30
2018-05-13T09:06:10.832Z,6.50
2018-05-13T09:07:10.765Z,5.80
2018-05-13T09:08:10.698Z,6.10
2018-05-13T09:09:10.628Z,5.20
2018-05-13T09:10:10.559Z,5.70
2018-05-13T09:11:10.490Z,6.90
2018-05-13T09:12:10.421Z,6.50
2018-05-13T09:13:10.352Z,6.80
2018-05-13T09:14:10.361Z,6.30
2018-05-13T09:15:10.216Z,7.10
2018-05-13T09:16:10.147Z,6.80
2018-05-13T09:17:10.078Z,6.30
2018-05-13T09:18:10.010Z,6.60
2018-05-13T09:19:09.941Z,7.90
2018-05-13T09:20:09.871Z,7.70
2018-05-13T09:21:09.804Z,7.80
2018-05-13T09:22:09.734Z,7.00
2018-05-13T09:23:09.666Z,8.00
2018-05-13T09:24:09.598Z,7.40
2018-05-13T09:25:09.528Z,7.50
2018-05-13T09:26:09.461Z,8.50
2018-05-13T09:27:09.391Z,8.20
2018-05-13T09:28:09.322Z,8.10
2018-05-13T09:29:09.252Z,7.90
2018-05-13T09:30:09.185Z,8.70
2018-05-13T09:31:09.116Z,8.60
2018-05-13T09:32:09.047Z,8.60
2018-05-13T09:33:09.092Z,7.70
2018-05-13T09:34:08.909Z,8.20
2018-05-13T09:35:08.840Z,8.20
2018-05-13T09:36:08.772Z,8.40
2018-05-13T09:37:08.703Z,8.70
2018-05-13T09:38:08.633Z,8.50
2018-05-13T09:39:08.568Z,8.40
2018-05-13T09:40:08.498Z,8.70
2018-05-13T09:41:08.430Z,8.00
2018-05-13T09:42:08.360Z,9.30
2018-05-13T09:43:08.294Z,10.80
2018-05-13T09:44:08.224Z,9.60
2018-05-13T09:45:08.155Z,8.80
2018-05-13T09:46:08.087Z,8.60
2018-05-13T09:47:08.019Z,7.90
2018-05-13T09:48:07.951Z,8.70
2018-05-13T09:49:07.883Z,8.80
2018-05-13T09:50:07.815Z,9.90
2018-05-13T09:51:07.747Z,8.40
2018-05-13T09:52:07.677Z,8.00
2018-05-13T09:53:07.613Z,8.50
2018-05-13T09:54:07.542Z,9.80
2018-05-13T09:55:07.474Z,9.20
2018-05-13T09:56:07.408Z,8.60
2018-05-13T09:57:07.338Z,8.30
2018-05-13T09:58:07.270Z,9.70
2018-05-13T09:59:07.203Z,8.70
2018-05-13T10:00:07.135Z,8.20
2018-05-13T10:01:07.067Z,8.90
2018-05-13T10:02:06.999Z,9.70
2018-05-13T10:03:06.932Z,7.70
2018-05-13T10:04:06.913Z,7.60
2018-05-13T10:05:06.795Z,8.40
2018-05-13T10:06:06.727Z,7.60
2018-05-13T10:07:06.659Z,8.20
2018-05-13T10:08:06.591Z,7.20
2018-05-13T10:09:06.522Z,8.20
2018-05-13T10:10:06.456Z,7.80
2018-05-13T10:11:06.388Z,7.40
2018-05-13T10:12:06.317Z,7.60
2018-05-13T10:13:06.250Z,8.20
2018-05-13T10:14:06.186Z,8.60
2018-05-13T10:15:06.115Z,7.40
2018-05-13T10:16:06.047Z,9.50
2018-05-13T10:17:05.981Z,7.70
2018-05-13T10:18:05.911Z,7.40
2018-05-13T10:19:05.843Z,8.20
2018-05-13T10:20:05.775Z,7.50
2018-05-13T10:21:05.706Z,8.20
2018-05-13T10:22:05.639Z,8.00
2018-05-13T10:23:05.572Z,8.20
2018-05-13T10:24:05.502Z,8.70
2018-05-13T10:25:05.434Z,8.60
2018-05-13T10:26:05.366Z,10.10
2018-05-13T10:27:05.299Z,8.10
2018-05-13T10:28:05.229Z,8.90
2018-05-13T10:29:05.165Z,8.40
2018-05-13T10:30:05.093Z,8.50
2018-05-13T10:31:05.035Z,8.90
2018-05-13T10:32:04.957Z,8.30
2018-05-13T10:33:04.891Z,8.70
2018-05-13T10:34:04.820Z,8.60
2018-05-13T10:35:04.752Z,9.50
2018-05-13T10:36:04.682Z,8.50
2018-05-13T10:37:04.615Z,9.20
2018-05-13T10:38:04.548Z,8.70
2018-05-13T10:39:04.478Z,7.90
2018-05-13T10:40:04.408Z,7.30
2018-05-13T10:41:04.340Z,8.30
2018-05-13T10:42:04.271Z,8.60
2018-05-13T10:43:04.202Z,7.60
2018-05-13T10:44:04.135Z,7.90
2018-05-13T10:45:04.065Z,7.20
2018-05-13T10:46:03.996Z,7.40
2018-05-13T10:47:03.932Z,7.70
2018-05-13T10:48:03.856Z,8.20
2018-05-13T10:49:03.789Z,8.20
2018-05-13T10:50:03.720Z,7.60
2018-05-13T10:51:03.651Z,8.20
2018-05-13T10:52:03.582Z,8.20
2018-05-13T10:53:03.513Z,8.90
2018-05-13T10:54:03.445Z,7.40
2018-05-13T10:55:03.377Z,8.80
2018-05-13T10:56:03.306Z,8.80
2018-05-13T10:57:03.238Z,8.60
2018-05-13T10:58:03.170Z,8.90
2018-05-13T10:59:03.102Z,8.20
2018-05-13T11:00:03.033Z,7.90
2018-05-13T11:01:02.964Z,9.10
2018-05-13T11:02:02.896Z,8.70
2018-05-13T11:03:02.829Z,8.60
2018-05-13T11:04:02.758Z,9.10
2018-05-13T11:05:02.691Z,8.50
2018-05-13T11:06:02.623Z,8.40
2018-05-13T11:07:02.556Z,7.80
2018-05-13T11:08:02.489Z,7.50
2018-05-13T11:09:02.419Z,8.10
2018-05-13T11:10:02.351Z,8.00
2018-05-13T11:11:02.285Z,8.30
2018-05-13T11:12:02.216Z,8.10
2018-05-13T11:13:02.148Z,8.30
2018-05-13T11:14:02.080Z,7.20
2018-05-13T11:15:02.013Z,6.70
2018-05-13T11:16:01.945Z,7.20
2018-05-13T11:17:01.877Z,7.10
2018-05-13T11:18:01.810Z,8.40
2018-05-13T11:19:01.742Z,8.40
2018-05-13T11:20:01.675Z,6.90
2018-05-13T11:21:01.607Z,7.80
2018-05-13T11:22:01.540Z,7.20
2018-05-13T11:23:01.474Z,9.00
2018-05-13T11:24:01.404Z,8.20
2018-05-13T11:25:01.336Z,7.40
2018-05-13T11:26:01.270Z,7.20
2018-05-13T11:27:01.201Z,8.30
2018-05-13T11:28:01.133Z,7.20
2018-05-13T11:29:01.066Z,7.60
2018-05-13T11:30:00.999Z,6.50
2018-05-13T11:31:00.931Z,7.70
2018-05-13T11:32:00.866Z,7.00
2018-05-13T11:33:00.797Z,7.50
2018-05-13T11:34:00.729Z,6.90
2018-05-13T11:35:00.662Z,6.90
2018-05-13T11:36:00.595Z,7.10
2018-05-13T11:37:00.525Z,7.70
2018-05-13T11:38:00.459Z,7.10
2018-05-13T11:39:00.392Z,7.70
2018-05-13T11:40:00.323Z,7.00
2018-05-13T11:41:00.256Z,8.00
2018-05-13T11:42:00.189Z,8.40
2018-05-13T11:43:00.122Z,7.60
2018-05-13T11:44:00.054Z,8.00
2018-05-13T11:44:59.986Z,9.20
2018-05-13T11:45:59.919Z,7.50
2018-05-13T11:46:59.852Z,8.00
2018-05-13T11:47:59.789Z,6.70
2018-05-13T11:48:59.720Z,6.90
2018-05-13T11:49:59.651Z,7.30
2018-05-13T11:50:59.587Z,7.70
2018-05-13T11:51:59.520Z,8.00
2018-05-13T11:52:59.455Z,6.30
2018-05-13T11:53:59.390Z,6.50
2018-05-13T11:54:59.325Z,6.90
2018-05-13T11:55:59.260Z,6.90
2018-05-13T11:56:59.195Z,7.50
2018-05-13T11:57:59.130Z,7.50
2018-05-13T11:58:59.065Z,9.10
2018-05-13T11:59:58.998Z,8.10
2018-05-13T12:00:58.933Z,7.60
2018-05-13T12:01:58.870Z,7.70
2018-05-13T12:02:58.805Z,7.90
2018-05-13T12:03:58.740Z,7.50
2018-05-13T12:04:58.681Z,7.80
2018-05-13T12:05:58.611Z,6.80
2018-05-13T12:06:58.546Z,8.10
2018-05-13T12:07:58.479Z,6.80
2018-05-13T12:08:58.413Z,7.30
2018-05-13T12:09:58.350Z,7.80
2018-05-13T12:10:58.285Z,6.90
2018-05-13T12:11:58.217Z,7.00
2018-05-13T12:12:58.153Z,7.50
2018-05-13T12:13:58.085Z,7.20
2018-05-13T12:14:58.020Z,6.80
2018-05-13T12:15:57.953Z,7.10
2018-05-13T12:16:57.887Z,7.30
2018-05-13T12:17:57.820Z,6.90
2018-05-13T12:18:57.753Z,6.30
2018-05-13T12:19:57.685Z,7.30
2018-05-13T12:20:57.689Z,7.30
2018-05-13T12:21:57.553Z,7.80
2018-05-13T12:22:57.485Z,8.00
2018-05-13T12:23:57.418Z,7.20
2018-05-13T12:24:57.350Z,8.30
2018-05-13T12:25:57.281Z,7.40
2018-05-13T12:26:57.214Z,7.10
2018-05-13T12:27:57.145Z,6.70
2018-05-13T12:28:57.157Z,8.80
2018-05-13T12:29:57.011Z,9.90
2018-05-13T12:30:56.943Z,7.20
2018-05-13T12:31:56.883Z,7.50
2018-05-13T12:32:56.805Z,6.60
2018-05-13T12:33:56.738Z,7.60
2018-05-13T12:34:56.671Z,7.00
2018-05-13T12:35:56.606Z,7.60
2018-05-13T12:36:56.533Z,6.60
2018-05-13T12:37:56.479Z,9.40
2018-05-13T12:38:56.397Z,6.20
2018-05-13T12:39:56.328Z,6.60
2018-05-13T12:40:56.260Z,8.00
2018-05-13T12:41:56.191Z,7.20
2018-05-13T12:42:56.123Z,8.00
2018-05-13T12:43:56.054Z,6.50
2018-05-13T12:44:55.985Z,6.60
2018-05-13T12:45:55.917Z,9.10
2018-05-13T12:46:55.849Z,6.60
2018-05-13T12:47:55.780Z,7.20
2018-05-13T12:48:55.711Z,7.10
2018-05-13T12:49:55.643Z,6.60
2018-05-13T12:50:55.575Z,6.40
2018-05-13T12:51:55.504Z,6.90
2018-05-13T12:52:55.443Z,7.10
2018-05-13T12:53:55.369Z,7.10
2018-05-13T12:54:55.300Z,6.60
2018-05-13T12:55:55.231Z,6.40
2018-05-13T12:56:55.163Z,7.60
2018-05-13T12:57:55.100Z,6.00
2018-05-13T12:58:55.027Z,6.50
2018-05-13T12:59:54.955Z,6.20
2018-05-13T13:00:54.888Z,6.30
2018-05-13T13:01:54.821Z,6.60
2018-05-13T13:02:54.751Z,5.80
2018-05-13T13:03:54.775Z,5.80
2018-05-13T13:04:54.614Z,5.80
2018-05-13T13:05:54.545Z,6.20
2018-05-13T13:06:54.477Z,5.60
2018-05-13T13:07:54.408Z,6.10
2018-05-13T13:08:54.340Z,6.40
2018-05-13T13:09:54.272Z,6.90
2018-05-13T13:10:54.204Z,5.40
2018-05-13T13:11:54.134Z,6.30
2018-05-13T13:12:54.112Z,5.40
2018-05-13T13:13:53.999Z,5.30
2018-05-13T13:14:53.930Z,6.50
2018-05-13T13:15:53.861Z,5.30
2018-05-13T13:16:53.793Z,5.50
2018-05-13T13:17:53.725Z,8.10